»·PEaware :: N3298S KRAL-KPSP

N3298S :: KRAL-KPSP

FLIGHT INFORMATION

Flight Status: Arrived
Operator: Privately registered:
United States
More flights under this callsign
Pilot: Todd P. (5750)
Aircraft: BEECH AIRCRAFT BONANZA
(BE36)
More flights by this aircraft type
Origin: KRAL Riverside Mun
United States
Destination: KPSP Palm Springs Intl
United States
More flights between these airports :: More routes between these airports
Route: PDZ V388 PSP
File this flight plan on PilotEdge
Remarks: ODP
Altitude:
(Current/Filed)
11,000ft
Speed:
(Current/Filed)
140kts
Departed: 22-Jul-15 12:17 PM
Arrived: 22-Jul-15 12:52 PM
Distance/Time
Traveled:
47nm/0:35
Distance/Time
To Go:
Arrived

Flight Plot

Page will automatically refresh every two minutes.


Map Options




Map Legend


Flown Route
Filed Route
Departure Airport
Arrival Airport
Navaid (VOR, NDB)
Fix

Horizontal Profiles

Position Reports

Time Latitude Longitude Heading Altitude Ground
Speed
22-Jul-15 11:59 33.951042 -117.446149 104 822ft 0kts
22-Jul-15 12:00 33.951042 -117.446149 104 822ft 0kts
22-Jul-15 12:01 33.951042 -117.446149 104 822ft 0kts
22-Jul-15 12:02 33.951042 -117.446149 104 822ft 0kts
22-Jul-15 12:03 33.951042 -117.446149 104 822ft 0kts
22-Jul-15 12:04 33.951042 -117.446149 104 822ft 0kts
22-Jul-15 12:05 33.951042 -117.446149 104 822ft 0kts
22-Jul-15 12:06 33.951042 -117.446149 104 822ft 0kts
22-Jul-15 12:07 33.951042 -117.446149 104 822ft 0kts
22-Jul-15 12:08 33.951042 -117.446149 104 822ft 0kts
22-Jul-15 12:09 33.951042 -117.446149 104 822ft 0kts
22-Jul-15 12:10 33.951042 -117.446149 104 822ft 0kts
22-Jul-15 12:11 33.951042 -117.446149 104 822ft 0kts
22-Jul-15 12:12 33.951503 -117.443663 340 822ft 12kts
22-Jul-15 12:13 33.950248 -117.436925 104 822ft 26kts
22-Jul-15 12:14 33.950016 -117.434625 317 821ft 0kts
22-Jul-15 12:15 33.950016 -117.434625 317 821ft 0kts
22-Jul-15 12:16 33.953084 -117.449254 276 1099ft 84kts
22-Jul-15 12:17 33.955105 -117.477118 243 2249ft 93kts
22-Jul-15 12:18 33.939775 -117.499914 231 3405ft 91kts
22-Jul-15 12:19 33.925592 -117.526416 267 4205ft 106kts
22-Jul-15 12:20 33.945771 -117.524072 42 5414ft 100kts
22-Jul-15 12:21 33.962728 -117.494560 92 6292ft 117kts
22-Jul-15 12:22 33.945232 -117.494417 254 7255ft 90kts
22-Jul-15 12:23 33.927057 -117.519147 232 7951ft 110kts
22-Jul-15 12:24 33.904792 -117.516338 84 8701ft 131kts
22-Jul-15 12:25 33.917171 -117.478853 78 9550ft 124kts
22-Jul-15 12:26 33.920555 -117.438308 81 10285ft 125kts
22-Jul-15 12:27 33.923653 -117.397322 86 10949ft 127kts
22-Jul-15 12:28 33.921949 -117.349657 92 11216ft 155kts
22-Jul-15 12:29 33.925067 -117.293427 80 11047ft 183kts
22-Jul-15 12:30 33.935535 -117.234572 71 11035ft 179kts
22-Jul-15 12:31 33.934375 -117.176742 90 11138ft 176kts
22-Jul-15 12:32 33.934938 -117.118749 87 11140ft 176kts
22-Jul-15 12:33 33.936899 -117.059935 86 11140ft 176kts
22-Jul-15 12:34 33.939073 -117.002036 86 11140ft 176kts
22-Jul-15 12:35 33.935451 -116.946243 115 11140ft 176kts
22-Jul-15 12:36 33.914821 -116.893518 115 11138ft 176kts
22-Jul-15 12:37 33.904070 -116.838974 64 11118ft 176kts
22-Jul-15 12:38 33.927242 -116.786807 61 11100ft 177kts
22-Jul-15 12:39 33.945824 -116.733536 100 11080ft 177kts
22-Jul-15 12:40 33.906517 -116.710438 138 11048ft 177kts
22-Jul-15 12:41 33.917672 -116.662129 48 11032ft 176kts
22-Jul-15 12:42 33.907162 -116.607441 110 11030ft 176kts
22-Jul-15 12:43 33.891345 -116.551701 101 11030ft 176kts
22-Jul-15 12:44 33.881756 -116.496775 101 9925ft 146kts
22-Jul-15 12:45 33.866448 -116.459469 151 7853ft 128kts
22-Jul-15 12:46 33.838678 -116.439917 150 5542ft 114kts
22-Jul-15 12:47 33.809774 -116.432835 222 2687ft 107kts
22-Jul-15 12:48 33.795922 -116.459408 261 1719ft 87kts
22-Jul-15 12:49 33.804648 -116.485934 323 1109ft 94kts
22-Jul-15 12:50 33.824146 -116.502712 322 481ft 60kts
22-Jul-15 12:51 33.828693 -116.507502 284 480ft 0kts
22-Jul-15 12:52 33.828447 -116.509163 60 481ft 0kts

Navigation Log

Ident Type
Flight plan parsing failed, navigation log unavailable